Time;durP1;ratioP1;P1;durP2;ratioP2;P2;SDS_P1;SDS_P2;PMS_P1;PMS_P2;Temp;Humidity;BMP_temperature;BMP_pressure;BME280_temperature;BME280_humidity;BME280_pressure;Samples;Min_cycle;Max_cycle;Signal;HPM_P1;HPM_P2
2022/12/15 00:40:24;;;;;;;4.07;3.38;;;;;;;20.58;29.00;100500.13;5069257;28;20169;-75
2022/12/15 00:42:49;;;;;;;5.35;3.70;;;;;;;20.61;28.93;100493.63;5070137;28;20049;-75
2022/12/15 00:45:15;;;;;;;4.50;3.20;;;;;;;20.57;28.95;100495.03;5072318;28;20040;-75
2022/12/15 00:47:40;;;;;;;5.82;3.55;;;;;;;20.46;29.06;100486.59;5075672;28;20604;-75
2022/12/15 01:20:19;;;;;;;4.57;3.30;;;;;;;20.03;29.48;100488.44;5075396;28;20055;-76
2022/12/15 01:22:51;;;;;;;5.60;2.92;;;;;;;20.07;29.45;100488.88;5080129;28;21656;-75
2022/12/15 01:25:19;;;;;;;5.55;3.40;;;;;;;20.01;29.56;100489.66;5079277;28;20040;-74
2022/12/15 01:27:45;;;;;;;4.85;3.50;;;;;;;20.01;29.50;100508.16;5079306;28;20560;-75
2022/12/15 01:30:13;;;;;;;5.63;3.75;;;;;;;20.00;29.48;100504.69;5083722;28;20044;-75
2022/12/15 01:32:39;;;;;;;4.88;3.45;;;;;;;19.94;29.62;100507.28;5081000;28;20213;-75
2022/12/15 01:35:05;;;;;;;4.75;3.47;;;;;;;19.91;29.58;100505.81;5077763;28;20028;-75
2022/12/15 01:37:32;;;;;;;4.90;3.72;;;;;;;19.95;29.69;100511.56;5076375;28;20047;-75
2022/12/15 01:42:41;;;;;;;4.93;3.65;;;;;;;19.84;29.66;100504.94;5080371;28;20217;-74
2022/12/15 01:45:25;;;;;;;4.88;3.47;;;;;;;19.84;29.74;100515.50;5078227;28;20123;-74
2022/12/15 01:48:03;;;;;;;4.00;3.40;;;;;;;19.85;29.72;100510.03;5082203;28;20027;-75
2022/12/15 01:50:31;;;;;;;3.90;3.38;;;;;;;19.77;29.76;100510.16;5076366;28;20123;-76
2022/12/15 01:52:58;;;;;;;5.03;3.63;;;;;;;19.82;29.66;100512.22;5077682;28;20048;-74
2022/12/15 01:55:27;;;;;;;4.20;3.13;;;;;;;19.80;29.85;100517.69;5084718;28;20036;-75
2022/12/15 01:57:59;;;;;;;3.78;3.38;;;;;;;19.78;29.72;100517.06;5075346;28;20032;-75
2022/12/15 02:00:25;;;;;;;5.72;3.40;;;;;;;19.77;29.62;100506.69;5083579;28;20152;-75
2022/12/15 02:02:51;;;;;;;4.57;3.30;;;;;;;19.72;29.79;100520.44;5085790;28;21122;-75
2022/12/15 02:05:18;;;;;;;4.47;3.33;;;;;;;19.73;29.77;100519.44;5077895;28;20044;-75
2022/12/15 02:07:44;;;;;;;4.28;3.20;;;;;;;19.69;29.92;100525.28;5082217;28;20036;-75
2022/12/15 02:10:10;;;;;;;4.07;3.25;;;;;;;19.71;29.90;100526.72;5082768;28;20051;-74
2022/12/15 02:13:01;;;;;;;4.03;3.00;;;;;;;19.70;29.84;100524.28;5078952;28;20044;-75
2022/12/15 02:15:37;;;;;;;4.93;3.20;;;;;;;19.66;29.73;100520.38;5082271;28;20035;-75
2022/12/15 02:18:20;;;;;;;4.28;3.30;;;;;;;19.64;29.93;100523.22;5078836;28;20048;-75
2022/12/15 02:20:50;;;;;;;4.03;3.63;;;;;;;19.67;29.91;100524.66;5077691;28;20058;-75
2022/12/15 02:23:19;;;;;;;;;;;;;;;19.71;29.87;100520.63;5081173;28;20666;-76
2022/12/15 02:26:21;;;;;;;4.03;2.75;;;;;;;19.67;29.92;100517.56;5080702;28;19915;-75
2022/12/15 02:28:47;;;;;;;5.47;2.95;;;;;;;19.67;29.91;100520.19;5078807;28;20032;-75
2022/12/15 02:34:12;;;;;;;5.25;3.20;;;;;;;19.60;29.82;100511.38;5081654;28;20040;-76
2022/12/15 02:36:41;;;;;;;5.07;3.55;;;;;;;19.63;29.86;100518.94;5080188;28;20056;-75
2022/12/15 02:39:07;;;;;;;3.60;2.63;;;;;;;19.65;29.79;100521.38;5076223;28;20059;-75
2022/12/15 02:41:41;;;;;;;3.90;2.90;;;;;;;19.63;29.89;100523.41;5079743;28;20028;-74
2022/12/15 02:44:12;;;;;;;4.10;2.97;;;;;;;19.61;29.90;100531.50;5079910;28;20055;-75
2022/12/15 02:46:50;;;;;;;3.88;2.80;;;;;;;19.54;30.06;100526.13;5078618;28;20199;-75
2022/12/15 02:49:38;;;;;;;3.92;3.08;;;;;;;19.57;29.93;100528.44;5074894;28;20052;-75
2022/12/15 02:52:22;;;;;;;3.60;2.60;;;;;;;19.58;29.93;100530.06;5076736;28;20727;-75
2022/12/15 02:55:02;;;;;;;3.58;2.63;;;;;;;19.54;29.93;100534.06;5075862;28;20039;-76
2022/12/15 02:57:31;;;;;;;3.97;2.95;;;;;;;19.50;30.01;100538.03;5079131;28;20126;-75
2022/12/15 03:00:08;;;;;;;4.75;2.83;;;;;;;19.57;30.03;100538.16;5075948;28;20425;-75
2022/12/15 03:02:37;;;;;;;4.45;3.00;;;;;;;19.55;30.05;100538.31;5074897;28;20041;-75
2022/12/15 03:05:04;;;;;;;2.90;2.60;;;;;;;19.58;29.85;100540.63;5076749;28;20676;-75
2022/12/15 03:07:30;;;;;;;3.72;2.83;;;;;;;19.53;29.99;100537.66;5076747;28;20127;-75
2022/12/15 03:09:58;;;;;;;3.33;2.90;;;;;;;19.54;29.97;100538.50;5083029;28;20628;-76
2022/12/15 03:12:24;;;;;;;4.15;2.83;;;;;;;19.55;29.93;100532.22;5079875;28;20040;-76
2022/12/15 03:14:49;;;;;;;4.35;2.75;;;;;;;19.58;29.99;100545.91;5079385;28;20493;-76
2022/12/15 03:17:15;;;;;;;4.05;2.70;;;;;;;19.48;30.05;100532.13;5078701;28;20046;-74
2022/12/15 03:19:41;;;;;;;4.05;2.58;;;;;;;19.73;29.77;100545.03;5079757;28;20042;-74
2022/12/15 03:22:06;;;;;;;3.83;2.65;;;;;;;19.90;29.55;100544.63;5075374;28;20542;-76
2022/12/15 03:24:32;;;;;;;4.20;2.67;;;;;;;19.95;29.51;100545.91;5078285;28;20028;-75
2022/12/15 03:26:57;;;;;;;2.88;2.50;;;;;;;20.00;29.35;100546.16;5080973;28;20039;-76
2022/12/15 03:29:23;;;;;;;3.47;2.47;;;;;;;19.95;29.61;100553.84;5081805;28;20027;-76
2022/12/15 03:31:49;;;;;;;3.65;2.70;;;;;;;19.95;29.55;100544.09;5080060;28;20079;-77
2022/12/15 03:34:14;;;;;;;3.40;2.72;;;;;;;19.96;29.54;100551.00;5084056;28;20051;-76
2022/12/15 03:36:40;;;;;;;3.03;2.38;;;;;;;19.86;29.71;100550.47;5081116;28;20608;-75
2022/12/15 03:39:05;;;;;;;2.85;2.55;;;;;;;19.92;29.54;100555.00;5079580;28;20467;-76
2022/12/15 03:41:31;;;;;;;4.00;2.60;;;;;;;19.83;29.74;100559.59;5083841;28;20054;-76
2022/12/15 03:43:57;;;;;;;3.05;2.75;;;;;;;19.81;29.79;100558.16;5080708;28;20044;-75
2022/12/15 03:46:22;;;;;;;3.40;2.70;;;;;;;19.82;29.77;100550.03;5079993;28;20027;-76
2022/12/15 03:48:48;;;;;;;2.88;2.50;;;;;;;19.79;29.83;100560.97;5075563;28;20035;-75
2022/12/15 03:51:13;;;;;;;4.00;2.60;;;;;;;19.79;29.75;100560.97;5084483;28;20043;-75
2022/12/15 03:53:39;;;;;;;3.10;2.40;;;;;;;19.77;29.67;100570.09;5083194;28;20597;-75
2022/12/15 03:56:05;;;;;;;4.13;2.40;;;;;;;19.73;29.88;100574.91;5080579;28;20044;-75
2022/12/15 03:58:31;;;;;;;5.13;2.55;;;;;;;19.67;29.93;100570.38;5071313;28;20040;-75
2022/12/15 04:00:56;;;;;;;2.97;2.10;;;;;;;19.64;30.02;100570.75;5081291;28;20048;-75
2022/12/15 04:03:22;;;;;;;3.05;2.53;;;;;;;19.70;29.90;100561.25;5081901;28;20036;-74
2022/12/15 04:05:47;;;;;;;3.65;2.50;;;;;;;19.63;29.94;100569.13;5081322;28;20043;-75
2022/12/15 04:08:13;;;;;;;3.80;2.50;;;;;;;19.57;29.99;100565.41;5073309;28;20119;-73
2022/12/15 04:10:38;;;;;;;3.30;2.60;;;;;;;19.62;29.87;100564.84;5080008;28;20054;-74
2022/12/15 04:13:09;;;;;;;3.70;2.60;;;;;;;19.51;29.87;100558.16;5077277;28;20100;-74
2022/12/15 04:15:37;;;;;;;3.28;2.40;;;;;;;19.59;30.00;100562.56;5075155;28;20036;-74
2022/12/15 04:18:04;;;;;;;4.82;2.67;;;;;;;19.57;29.99;100560.13;5081350;28;20096;-74
2022/12/15 04:20:30;;;;;;;4.25;2.70;;;;;;;19.56;29.85;100558.44;5075076;28;20044;-74
2022/12/15 04:22:56;;;;;;;3.63;2.60;;;;;;;19.55;29.88;100551.53;5080410;28;20093;-73
2022/12/15 05:31:51;;;;;;;2.92;2.47;;;;;;;19.80;29.48;100567.09;5077938;28;20114;-74
2022/12/15 05:34:31;;;;;;;2.97;2.45;;;;;;;19.78;29.57;100566.47;5077258;28;20046;-74
2022/12/15 05:36:58;;;;;;;3.85;2.22;;;;;;;19.78;29.66;100572.56;5076542;28;20478;-74
2022/12/15 05:39:25;;;;;;;2.42;2.08;;;;;;;19.69;29.96;100571.00;5071880;28;20121;-74
2022/12/15 05:41:53;;;;;;;6.10;2.45;;;;;;;19.72;29.77;100578.56;5070375;28;20044;-74
2022/12/15 05:44:19;;;;;;;2.63;1.88;;;;;;;19.68;29.73;100572.03;5073205;28;20135;-74
2022/12/15 05:46:45;;;;;;;3.15;2.38;;;;;;;19.69;29.78;100576.28;5071793;28;20036;-74
2022/12/15 05:49:15;;;;;;;2.58;1.95;;;;;;;19.61;29.94;100563.22;5076815;28;20504;-73
2022/12/15 05:51:44;;;;;;;4.45;2.40;;;;;;;19.55;29.97;100567.38;5078121;28;20470;-74
2022/12/15 05:54:11;;;;;;;3.58;2.28;;;;;;;19.59;29.85;100567.84;5078997;28;20051;-74
2022/12/15 05:56:37;;;;;;;2.63;2.13;;;;;;;19.52;30.30;100561.63;5078736;28;20092;-73
2022/12/15 05:59:03;;;;;;;3.55;2.20;;;;;;;19.57;30.04;100572.50;5081389;28;20631;-74
2022/12/15 06:01:30;;;;;;;3.80;2.38;;;;;;;19.55;30.08;100577.94;5079292;28;20165;-74
2022/12/15 06:03:57;;;;;;;3.25;2.30;;;;;;;19.51;30.11;100571.38;5081899;28;21928;-73
2022/12/15 06:06:22;;;;;;;3.30;2.40;;;;;;;19.50;30.08;100574.19;5085488;28;20040;-74
2022/12/15 06:08:48;;;;;;;2.85;2.10;;;;;;;19.52;30.00;100575.66;5081734;28;20044;-73
2022/12/15 06:11:15;;;;;;;2.88;2.35;;;;;;;19.40;30.23;100576.31;5078876;28;20046;-74
2022/12/15 06:13:41;;;;;;;2.97;2.40;;;;;;;19.39;30.30;100586.06;5077583;28;20128;-73
2022/12/15 06:16:13;;;;;;;2.38;1.95;;;;;;;19.43;30.02;100583.88;5077768;28;20271;-74
2022/12/15 06:18:44;;;;;;;2.53;2.10;;;;;;;19.41;29.98;100591.97;5079537;28;20470;-74
2022/12/15 06:21:16;;;;;;;2.55;2.10;;;;;;;19.41;30.08;100599.88;5077492;28;20853;-74
2022/12/15 06:23:42;;;;;;;4.18;2.53;;;;;;;19.41;30.18;100602.53;5080822;28;20036;-74
2022/12/15 06:26:09;;;;;;;4.43;2.10;;;;;;;19.34;30.14;100596.31;5082295;28;20036;-74
2022/12/15 06:28:34;;;;;;;3.17;2.20;;;;;;;19.37;30.18;100600.41;5080626;28;20043;-74
2022/12/15 06:31:03;;;;;;;2.88;2.45;;;;;;;19.52;29.96;100599.41;5079463;28;20039;-73
2022/12/15 06:33:29;;;;;;;3.95;2.42;;;;;;;20.46;28.93;100605.63;5083584;28;20027;-74
2022/12/15 06:35:54;;;;;;;3.30;2.38;;;;;;;21.62;27.37;100596.31;5080997;28;20136;-74
2022/12/15 06:38:20;;;;;;;3.00;2.28;;;;;;;22.24;26.83;100600.63;5077753;28;20170;-75
2022/12/15 06:40:54;;;;;;;4.57;1.98;;;;;;;22.63;26.21;100600.91;5078041;28;20137;-74
2022/12/15 06:43:20;;;;;;;4.18;2.10;;;;;;;22.50;26.37;100594.56;5074999;28;20043;-74
2022/12/15 06:45:50;;;;;;;1.98;1.83;;;;;;;22.35;26.62;100607.19;5079232;28;20093;-74
2022/12/15 06:48:16;;;;;;;2.75;1.77;;;;;;;22.11;27.13;100611.22;5075387;28;20063;-75
2022/12/15 06:50:42;;;;;;;3.05;2.22;;;;;;;21.93;27.21;100603.78;5077822;28;20040;-75
2022/12/15 06:53:08;;;;;;;2.60;1.77;;;;;;;21.74;27.64;100609.84;5079221;28;20568;-74
2022/12/15 06:55:33;;;;;;;2.08;1.63;;;;;;;21.50;28.34;100603.19;5071835;28;20036;-76
2022/12/15 06:57:59;;;;;;;2.22;1.77;;;;;;;21.35;28.26;100598.00;5093478;27;20043;-74
2022/12/15 07:00:26;;;;;;;2.53;2.00;;;;;;;21.22;28.48;100603.19;5082280;28;20094;-75
2022/12/15 07:02:52;;;;;;;2.17;1.73;;;;;;;21.08;28.63;100607.59;5078845;28;20043;-74
2022/12/15 07:05:18;;;;;;;3.03;2.33;;;;;;;20.99;29.05;100611.38;5084071;28;20406;-73
2022/12/15 07:07:44;;;;;;;2.90;2.20;;;;;;;20.95;29.21;100614.59;5074094;28;20048;-73
2022/12/15 07:10:10;;;;;;;2.85;1.80;;;;;;;20.94;29.13;100623.56;5078467;28;20132;-74
2022/12/15 07:12:35;;;;;;;2.85;1.88;;;;;;;21.09;28.98;100626.94;5074461;28;20127;-73
2022/12/15 07:15:01;;;;;;;2.58;1.75;;;;;;;21.34;28.83;100616.72;5075940;28;20632;-72
2022/12/15 07:17:27;;;;;;;2.25;2.00;;;;;;;21.66;28.20;100615.28;5075304;28;20028;-72
2022/12/15 07:19:53;;;;;;;2.45;1.98;;;;;;;22.03;28.00;100620.13;5071394;28;20565;-72
2022/12/15 07:22:20;;;;;;;3.67;2.10;;;;;;;22.07;27.52;100617.91;5077231;28;20059;-72
2022/12/15 07:24:46;;;;;;;2.95;1.70;;;;;;;21.97;27.88;100620.94;5078843;28;20086;-73
2022/12/15 07:27:12;;;;;;;2.53;1.90;;;;;;;21.85;28.28;100629.63;5071072;28;20545;-72
2022/12/15 07:29:38;;;;;;;1.92;1.70;;;;;;;21.65;28.29;100632.19;5068587;28;20040;-70
2022/12/15 07:32:03;;;;;;;4.45;2.00;;;;;;;21.47;28.66;100639.84;5070150;28;20032;-72
2022/12/15 07:34:29;;;;;;;3.58;2.05;;;;;;;21.37;28.67;100637.56;5073318;28;20043;-72
2022/12/15 07:36:54;;;;;;;2.60;2.03;;;;;;;21.25;28.84;100650.50;5071010;28;20512;-72
2022/12/15 07:39:20;;;;;;;3.03;2.10;;;;;;;21.22;29.13;100650.06;5075926;28;20396;-72
2022/12/15 07:41:46;;;;;;;3.08;2.00;;;;;;;21.18;29.19;100657.53;5075890;28;20067;-73
2022/12/15 07:44:14;;;;;;;2.90;1.77;;;;;;;21.13;29.07;100662.59;5075882;28;20031;-72
2022/12/15 07:46:40;;;;;;;2.78;2.00;;;;;;;21.06;29.26;100656.44;5067702;28;20121;-73
2022/12/15 07:49:05;;;;;;;3.13;2.00;;;;;;;21.01;29.49;100653.56;5073969;28;20490;-72
2022/12/15 07:51:31;;;;;;;3.78;2.30;;;;;;;20.94;29.54;100661.44;5074499;28;20714;-73
2022/12/15 07:53:57;;;;;;;3.13;2.03;;;;;;;20.89;29.50;100663.84;5073955;28;20055;-73
2022/12/15 07:56:22;;;;;;;2.42;1.80;;;;;;;20.84;29.71;100654.84;5074662;28;20463;-73
2022/12/15 07:58:48;;;;;;;2.63;1.92;;;;;;;20.82;29.54;100655.00;5072917;28;20056;-75
2022/12/15 08:01:14;;;;;;;3.15;2.38;;;;;;;20.74;29.96;100663.91;5074436;28;20131;-75
2022/12/15 08:03:40;;;;;;;2.30;1.77;;;;;;;20.71;29.74;100666.94;5071425;28;20044;-75
2022/12/15 08:06:08;;;;;;;2.90;1.70;;;;;;;20.67;29.82;100667.50;5067983;28;20043;-75
2022/12/15 08:08:34;;;;;;;1.70;1.60;;;;;;;20.66;29.88;100676.47;5074118;28;20074;-72
2022/12/15 08:11:08;;;;;;;2.42;2.00;;;;;;;20.65;29.74;100682.75;5073396;28;20143;-75
2022/12/15 08:13:35;;;;;;;2.85;2.20;;;;;;;20.74;29.70;100674.50;5073757;28;20035;-75
2022/12/15 08:16:00;;;;;;;2.20;1.80;;;;;;;21.38;28.96;100673.63;5077455;28;20048;-75
2022/12/15 08:18:26;;;;;;;2.80;2.00;;;;;;;22.21;27.58;100669.16;5077289;28;20047;-74
2022/12/15 08:20:51;;;;;;;2.58;2.28;;;;;;;22.66;27.16;100664.19;5078415;28;20071;-75
2022/12/15 08:23:17;;;;;;;2.47;2.00;;;;;;;22.69;26.97;100669.09;5077973;28;20101;-74
2022/12/15 08:25:43;;;;;;;2.25;1.75;;;;;;;22.58;27.20;100678.44;5081011;28;20036;-74
2022/12/15 08:28:08;;;;;;;1.92;1.80;;;;;;;22.44;27.47;100680.28;5071844;28;20032;-73
2022/12/15 08:30:35;;;;;;;2.85;2.25;;;;;;;22.35;27.36;100681.47;5067229;28;20036;-76
2022/12/15 08:33:02;;;;;;;3.40;2.30;;;;;;;22.15;27.92;100691.19;5069790;28;22066;-75
2022/12/15 08:35:27;;;;;;;3.80;2.13;;;;;;;21.97;28.02;100692.50;5077716;28;20076;-75
2022/12/15 08:37:53;;;;;;;2.75;1.98;;;;;;;21.83;28.29;100689.97;5070555;28;20052;-75
2022/12/15 08:40:19;;;;;;;4.30;2.17;;;;;;;21.70;28.75;100698.66;5072303;28;20033;-76
2022/12/15 08:42:44;;;;;;;1.95;1.80;;;;;;;21.59;28.44;100697.41;5073370;28;20028;-76
2022/12/15 08:45:13;;;;;;;2.30;2.00;;;;;;;21.54;28.69;100694.50;5072527;28;20481;-76
2022/12/15 08:47:39;;;;;;;2.88;2.33;;;;;;;21.44;28.67;100703.81;5065391;28;20462;-75
2022/12/15 08:50:06;;;;;;;2.40;1.90;;;;;;;21.41;28.79;100705.03;5067499;28;20089;-76
2022/12/15 08:52:33;;;;;;;2.97;2.15;;;;;;;21.38;28.84;100706.22;5069653;28;20047;-76
2022/12/15 08:54:59;;;;;;;3.20;2.17;;;;;;;21.33;28.84;100707.81;5069555;28;20565;-74
2022/12/15 08:57:24;;;;;;;3.28;2.00;;;;;;;21.26;28.96;100715.72;5075325;28;20046;-75
2022/12/15 08:59:50;;;;;;;5.40;2.20;;;;;;;21.17;29.21;100711.50;5069164;28;21135;-75
2022/12/15 09:02:15;;;;;;;2.70;2.03;;;;;;;21.12;29.18;100714.75;5075636;28;20033;-75
2022/12/15 09:04:41;;;;;;;2.35;1.88;;;;;;;20.98;29.39;100710.31;5073815;28;20040;-75
2022/12/15 09:07:07;;;;;;;2.30;1.90;;;;;;;20.97;29.23;100714.00;5080848;28;20040;-75
2022/12/15 09:09:32;;;;;;;3.10;2.30;;;;;;;20.91;29.46;100712.09;5075421;28;20390;-75
2022/12/15 09:11:58;;;;;;;3.72;2.22;;;;;;;20.90;29.27;100722.88;5080318;28;20044;-75
2022/12/15 09:14:23;;;;;;;2.50;2.30;;;;;;;20.86;29.37;100719.00;5075818;28;20048;-75
2022/12/15 09:16:49;;;;;;;4.22;2.17;;;;;;;20.80;29.42;100721.34;5078734;28;20079;-74
2022/12/15 09:19:14;;;;;;;2.83;2.20;;;;;;;20.77;29.46;100715.63;5075888;28;20044;-75
2022/12/15 09:21:43;;;;;;;3.30;2.22;;;;;;;20.72;29.34;100723.31;5077434;28;20091;-75
2022/12/15 09:24:11;;;;;;;2.72;2.28;;;;;;;20.73;29.47;100719.66;5072232;28;21775;-75
2022/12/15 09:26:37;;;;;;;2.78;2.10;;;;;;;20.69;29.41;100721.06;5071434;28;20101;-76
2022/12/15 09:29:02;;;;;;;3.03;2.30;;;;;;;20.65;29.42;100725.91;5076437;28;20490;-77
2022/12/15 09:31:35;;;;;;;2.60;2.38;;;;;;;20.87;29.28;100717.97;5070786;28;20040;-75
2022/12/15 09:34:01;;;;;;;2.97;2.28;;;;;;;21.25;28.52;100715.91;5073347;28;20036;-75
2022/12/15 09:36:28;;;;;;;2.75;2.20;;;;;;;21.70;28.03;100715.38;5074160;28;20036;-74
2022/12/15 09:38:54;;;;;;;3.97;2.15;;;;;;;21.97;27.72;100710.25;5070290;28;20044;-75
2022/12/15 09:41:23;;;;;;;3.30;2.45;;;;;;;21.87;27.75;100718.56;5072368;28;20052;-75
2022/12/15 09:44:10;;;;;;;2.70;2.00;;;;;;;21.71;27.85;100717.03;5073400;28;20046;-73
2022/12/15 09:46:47;;;;;;;2.53;2.13;;;;;;;21.59;28.39;100712.47;5073463;28;20162;-73
2022/12/15 09:49:26;;;;;;;3.60;2.30;;;;;;;21.48;28.28;100720.97;5072682;28;20055;-73
2022/12/15 09:52:01;;;;;;;3.90;2.60;;;;;;;21.45;27.76;100722.16;5077404;28;20066;-73
2022/12/15 09:54:30;;;;;;;4.45;2.60;;;;;;;21.58;28.11;100730.22;4973691;28;20086;-74
2022/12/15 09:56:59;;;;;;;3.97;2.45;;;;;;;21.49;28.55;100734.00;5072884;28;20032;-74
2022/12/15 09:59:49;;;;;;;4.10;2.77;;;;;;;21.40;28.40;100727.22;5075331;28;20036;-76
2022/12/15 10:02:50;;;;;;;3.08;2.40;;;;;;;21.29;28.72;100723.25;5071874;28;20946;-75
2022/12/15 10:05:39;;;;;;;2.92;2.60;;;;;;;21.22;28.93;100722.38;5074784;28;20028;-75
2022/12/15 10:08:05;;;;;;;4.93;2.50;;;;;;;21.14;28.85;100719.84;5060330;28;20040;-74
2022/12/15 10:10:39;;;;;;;5.00;2.45;;;;;;;21.07;28.89;100724.28;5069700;28;20075;-73
2022/12/15 10:13:13;;;;;;;3.58;2.58;;;;;;;21.06;28.80;100726.09;5080621;28;20809;-72
2022/12/15 10:15:52;;;;;;;3.35;2.53;;;;;;;20.99;28.72;100737.63;5062423;28;20055;-73
2022/12/15 10:18:43;;;;;;;4.55;2.90;;;;;;;20.95;29.06;100731.88;5072894;28;20040;-75
2022/12/15 10:21:13;;;;;;;3.40;2.72;;;;;;;20.92;29.17;100726.97;5070435;28;20596;-73
2022/12/15 10:23:40;;;;;;;2.78;2.13;;;;;;;20.82;29.27;100721.16;5018134;28;20113;-72
2022/12/15 10:26:19;;;;;;;3.30;2.40;;;;;;;20.81;29.18;100724.81;5069988;28;20093;-72
2022/12/15 10:28:45;;;;;;;3.42;2.50;;;;;;;20.77;29.13;100724.38;5035964;28;20028;-71
2022/12/15 10:31:44;;;;;;;3.75;2.47;;;;;;;20.79;29.23;100713.59;5059509;28;20035;-72
2022/12/15 10:34:23;;;;;;;4.10;2.50;;;;;;;20.78;29.26;100717.25;5024807;28;20044;-72
2022/12/15 10:36:50;;;;;;;2.90;2.30;;;;;;;20.73;29.49;100717.84;5004661;28;20044;-72
2022/12/15 10:39:16;;;;;;;3.50;2.50;;;;;;;20.73;29.37;100723.13;5026009;28;20055;-72
2022/12/15 10:41:42;;;;;;;2.80;2.25;;;;;;;20.67;29.35;100718.59;5073881;28;20051;-72
2022/12/15 10:44:24;;;;;;;3.00;2.20;;;;;;;20.64;29.37;100726.06;5073155;28;20043;-72
2022/12/15 10:47:08;;;;;;;4.00;2.55;;;;;;;20.61;29.44;100727.25;5069577;28;20047;-72
2022/12/15 10:49:34;;;;;;;2.83;2.20;;;;;;;20.89;29.06;100727.38;5069807;28;20032;-72
2022/12/15 10:51:59;;;;;;;3.58;2.53;;;;;;;21.49;28.25;100722.59;5044994;28;20101;-71
2022/12/15 10:54:33;;;;;;;3.17;2.42;;;;;;;22.03;27.51;100728.84;5045488;28;20038;-72
2022/12/15 10:57:02;;;;;;;3.10;2.22;;;;;;;22.28;27.25;100720.44;5069571;28;20785;-72
2022/12/15 10:59:32;;;;;;;2.95;2.35;;;;;;;22.21;27.61;100725.69;5072645;28;20662;-72
2022/12/15 11:02:19;;;;;;;3.53;2.10;;;;;;;22.08;27.51;100727.44;5074391;28;20051;-71
2022/12/15 11:05:14;;;;;;;2.97;2.38;;;;;;;21.89;27.83;100726.31;5074488;28;20146;-72
2022/12/15 11:07:46;;;;;;;2.92;2.35;;;;;;;21.73;28.02;100735.41;5044286;28;20044;-72
2022/12/15 11:10:20;;;;;;;4.28;2.30;;;;;;;21.60;28.28;100720.25;5065616;28;20506;-73
2022/12/15 11:12:58;;;;;;;2.63;2.05;;;;;;;21.52;28.53;100725.66;5071061;28;20493;-72
2022/12/15 11:15:23;;;;;;;3.55;2.20;;;;;;;21.40;28.67;100722.75;5072683;28;20581;-72
2022/12/15 11:18:01;;;;;;;2.88;2.33;;;;;;;21.32;28.79;100719.41;5074858;28;20044;-72
2022/12/15 11:20:33;;;;;;;2.97;2.30;;;;;;;21.26;28.68;100728.13;5077743;28;20487;-71
2022/12/15 11:23:09;;;;;;;2.60;2.30;;;;;;;21.19;29.07;100721.94;5062289;28;20043;-72
2022/12/15 11:25:34;;;;;;;2.50;2.20;;;;;;;21.17;28.93;100730.03;5051917;28;20032;-72
2022/12/15 11:28:05;;;;;;;3.08;2.30;;;;;;;21.10;29.07;100731.81;5077483;28;20032;-72
2022/12/15 11:30:41;;;;;;;3.60;2.40;;;;;;;21.09;29.17;100740.78;5065290;28;20047;-73
2022/12/15 11:33:09;;;;;;;2.70;2.20;;;;;;;21.01;29.08;100735.63;5025773;28;20702;-71
2022/12/15 11:35:56;;;;;;;3.92;2.35;;;;;;;20.97;29.09;100735.16;5071401;28;20579;-73
2022/12/15 11:38:43;;;;;;;3.58;2.60;;;;;;;20.91;29.32;100737.75;5073720;28;20178;-71
2022/12/15 11:41:15;;;;;;;2.83;2.20;;;;;;;20.89;29.51;100739.78;5073259;28;20027;-73
2022/12/15 11:44:15;;;;;;;3.15;2.42;;;;;;;20.80;29.15;100737.22;5074045;28;20041;-75
2022/12/15 11:47:06;;;;;;;3.08;2.33;;;;;;;20.81;29.52;100732.75;5069980;28;20398;-75
2022/12/15 11:49:37;;;;;;;3.00;2.20;;;;;;;20.83;29.46;100729.97;5073783;28;20020;-74
2022/12/15 11:52:54;;;;;;;3.45;2.17;;;;;;;20.98;29.33;100730.69;5069264;28;20044;-75
2022/12/15 11:55:33;;;;;;;3.97;2.25;;;;;;;21.01;29.26;100730.34;5030457;28;20051;-67
2022/12/15 11:58:26;;;;;;;2.33;2.10;;;;;;;21.00;29.09;100723.38;5074453;28;20040;-68
2022/12/15 12:01:03;;;;;;;2.75;2.03;;;;;;;20.97;29.22;100729.06;5075416;28;20063;-67
2022/12/15 12:03:38;;;;;;;2.15;1.90;;;;;;;20.93;29.23;100733.91;5076100;28;20608;-67
2022/12/15 12:06:13;;;;;;;2.63;2.00;;;;;;;20.87;29.41;100731.22;5075783;28;20529;-67
2022/12/15 12:09:15;;;;;;;2.75;2.10;;;;;;;20.87;29.34;100737.31;5078683;28;20050;-67
2022/12/15 12:12:20;;;;;;;2.92;2.10;;;;;;;20.94;29.35;100724.13;5060275;28;20875;-66
2022/12/15 12:15:04;;;;;;;3.47;2.30;;;;;;;21.00;29.25;100718.06;5075337;28;20041;-65
2022/12/15 12:17:51;;;;;;;2.80;2.10;;;;;;;21.00;29.19;100716.25;5069853;28;20032;-66
2022/12/15 12:20:19;;;;;;;3.33;1.92;;;;;;;20.91;29.40;100714.75;5067310;28;20123;-68
2022/12/15 12:23:10;;;;;;;3.33;2.03;;;;;;;20.88;29.48;100719.63;5070027;28;20182;-66
2022/12/15 12:25:44;;;;;;;4.97;2.17;;;;;;;20.91;29.29;100717.41;5058458;28;20131;-65
2022/12/15 12:28:18;;;;;;;2.72;2.05;;;;;;;21.01;29.06;100709.16;5066770;28;20542;-65
2022/12/15 12:30:46;;;;;;;3.05;2.38;;;;;;;21.21;29.05;100712.78;5073652;28;20119;-67
2022/12/15 12:33:39;;;;;;;3.40;1.83;;;;;;;21.25;28.81;100703.47;5069311;28;20032;-67
2022/12/15 12:36:10;;;;;;;2.38;1.85;;;;;;;21.23;28.75;100696.72;5068666;28;20036;-67
2022/12/15 12:38:49;;;;;;;3.75;1.90;;;;;;;21.16;29.14;100711.69;5069966;28;20481;-65
2022/12/15 12:41:33;;;;;;;3.08;2.00;;;;;;;21.12;29.19;100704.16;5056854;28;20054;-65
2022/12/15 12:44:07;;;;;;;3.40;2.03;;;;;;;21.10;29.00;100708.81;5070777;28;20119;-65
2022/12/15 12:46:41;;;;;;;2.33;1.75;;;;;;;21.04;29.25;100706.13;5069479;28;20039;-65
2022/12/15 12:49:16;;;;;;;3.22;2.10;;;;;;;21.02;29.27;100705.50;5068825;28;20033;-65
2022/12/15 12:51:50;;;;;;;2.95;2.13;;;;;;;20.92;29.48;100697.03;5071441;28;20313;-67
2022/12/15 12:54:31;;;;;;;2.42;1.90;;;;;;;20.93;29.41;100717.22;5069279;28;20039;-65
2022/12/15 12:56:56;;;;;;;1.83;1.73;;;;;;;20.90;29.62;100705.19;5005336;28;20042;-64
2022/12/15 12:59:27;;;;;;;2.50;1.95;;;;;;;20.85;29.45;100710.22;5067072;28;20075;-65
2022/12/15 13:02:09;;;;;;;1.90;1.70;;;;;;;20.79;29.51;100703.84;5072091;28;20907;-66
2022/12/15 13:04:38;;;;;;;2.70;1.90;;;;;;;20.85;29.37;100701.47;5074097;28;20040;-64
2022/12/15 13:07:24;;;;;;;2.78;2.28;;;;;;;21.08;29.20;100702.91;5068158;28;20443;-66
2022/12/15 13:10:06;;;;;;;2.70;1.88;;;;;;;21.76;28.54;100699.75;5071265;28;20119;-66
2022/12/15 13:12:37;;;;;;;2.15;1.88;;;;;;;22.30;27.57;100695.34;5054240;28;21048;-67
2022/12/15 13:15:09;;;;;;;;;;;;;;;22.55;27.34;100695.59;5072851;28;20039;-67
2022/12/15 13:17:42;;;;;;;1.92;1.80;;;;;;;22.45;27.66;100694.38;5073673;28;19916;-67
2022/12/15 13:20:20;;;;;;;2.13;1.80;;;;;;;22.24;27.86;100684.69;5064378;28;20044;-66
2022/12/15 13:22:46;;;;;;;2.60;1.95;;;;;;;22.07;28.02;100692.16;5069483;28;20059;-66
2022/12/15 13:25:35;;;;;;;2.38;1.70;;;;;;;21.89;28.11;100689.19;5070454;28;20031;-66
2022/12/15 13:28:24;;;;;;;1.87;1.60;;;;;;;21.73;28.55;100686.88;5058635;28;20036;-67
2022/12/15 13:31:20;;;;;;;5.03;1.90;;;;;;;21.63;28.52;100688.03;5070200;28;21157;-67
2022/12/15 13:33:48;;;;;;;3.05;2.05;;;;;;;21.54;28.72;100691.03;5068411;28;20029;-66
2022/12/15 13:36:35;;;;;;;2.05;1.65;;;;;;;21.45;28.88;100695.66;5072170;28;20734;-67
2022/12/15 13:39:11;;;;;;;3.08;2.13;;;;;;;21.42;28.80;100694.22;5068810;28;20044;-66
2022/12/15 13:42:00;;;;;;;2.63;1.90;;;;;;;21.39;28.95;100699.09;5059732;28;20060;-67
2022/12/15 13:44:28;;;;;;;3.83;2.10;;;;;;;21.35;29.08;100697.81;5040016;28;20112;-66
2022/12/15 13:46:57;;;;;;;2.03;1.75;;;;;;;21.30;29.16;100692.28;5072705;28;20577;-66
2022/12/15 13:49:34;;;;;;;2.30;1.85;;;;;;;21.25;29.26;100692.06;5069603;28;20032;-66
2022/12/15 13:52:09;;;;;;;2.97;2.10;;;;;;;21.18;29.37;100688.50;5069742;28;20089;-66
2022/12/15 13:54:39;;;;;;;2.75;1.95;;;;;;;21.14;29.24;100690.72;5070349;28;20044;-66
2022/12/15 13:57:16;;;;;;;2.10;1.75;;;;;;;21.09;29.26;100683.34;5039014;28;20047;-66
2022/12/15 14:00:06;;;;;;;2.72;2.00;;;;;;;21.08;29.40;100683.53;5073443;28;20073;-66
2022/12/15 14:02:37;;;;;;;2.55;1.80;;;;;;;21.00;29.58;100681.00;5059735;28;20180;-66
2022/12/15 14:05:24;;;;;;;4.13;1.90;;;;;;;20.97;29.39;100682.22;5072484;28;20065;-66
2022/12/15 14:07:52;;;;;;;2.38;1.92;;;;;;;20.94;29.63;100681.78;5068530;28;20048;-66